createdAt,value
2022-11-20T00:01:29.734Z,100953.97
2022-11-20T00:03:59.192Z,100942.53
2022-11-20T00:06:28.236Z,100941.69
2022-11-20T00:08:58.280Z,100939.94
2022-11-20T00:11:27.869Z,100941.72
2022-11-20T00:13:58.834Z,100937.38
2022-11-20T00:16:28.955Z,100942.69
2022-11-20T00:18:55.958Z,100948.81
2022-11-20T00:21:26.718Z,100936.53
2022-11-20T00:23:56.687Z,100933.03
2022-11-20T00:26:26.707Z,100926.03
2022-11-20T00:28:58.192Z,100936.63
2022-11-20T00:31:26.039Z,100934.88
2022-11-20T00:33:53.575Z,100938.44
2022-11-20T00:36:26.854Z,100925.25
2022-11-20T00:38:55.559Z,100922.63
2022-11-20T00:41:23.575Z,100924.41
2022-11-20T00:43:51.981Z,100916.50
2022-11-20T00:46:22.640Z,100922.69
2022-11-20T00:48:49.887Z,100932.41
2022-11-20T00:51:20.979Z,100923.56
2022-11-20T00:53:48.713Z,100927.13
2022-11-20T00:56:18.961Z,100928.00
2022-11-20T00:58:48.916Z,100921.88
2022-11-20T01:01:27.172Z,100918.34
2022-11-20T01:03:57.149Z,100912.22
2022-11-20T01:06:28.215Z,100906.94
2022-11-20T01:09:00.173Z,100905.19
2022-11-20T01:11:31.433Z,100903.47
2022-11-20T01:14:00.380Z,100912.25
2022-11-20T01:16:37.252Z,100910.47
2022-11-20T01:19:08.441Z,100906.97
2022-11-20T01:21:41.943Z,100902.53
2022-11-20T01:24:13.801Z,100906.09
2022-11-20T01:26:43.472Z,100909.59
2022-11-20T01:29:24.423Z,100913.09
2022-11-20T01:31:53.462Z,100908.75
2022-11-20T01:34:23.355Z,100917.38
2022-11-20T01:36:52.784Z,100920.78
2022-11-20T01:39:25.998Z,100918.13
2022-11-20T01:42:14.067Z,100917.22
2022-11-20T01:44:58.389Z,100918.13
2022-11-20T01:47:42.049Z,100920.81
2022-11-20T01:50:29.944Z,100910.31
2022-11-20T01:53:06.205Z,100913.84
2022-11-20T01:55:40.859Z,100912.91
2022-11-20T01:58:09.232Z,100912.06
2022-11-20T02:00:36.342Z,100913.84
2022-11-20T02:03:08.262Z,100919.97
2022-11-20T02:06:02.347Z,100924.31
2022-11-20T02:08:29.531Z,100915.53
2022-11-20T02:10:56.543Z,100911.19
2022-11-20T02:13:42.240Z,100905.06
2022-11-20T02:16:24.919Z,100912.16
2022-11-20T02:18:54.409Z,100911.34
2022-11-20T02:22:10.096Z,100910.47
2022-11-20T02:24:36.943Z,100910.53
2022-11-20T02:27:10.881Z,100907.03
2022-11-20T02:30:11.900Z,100904.44
2022-11-20T02:32:40.748Z,100895.66
2022-11-20T02:35:31.785Z,100894.88
2022-11-20T02:38:03.473Z,100887.81
2022-11-20T02:40:30.534Z,100898.38
2022-11-20T02:42:57.976Z,100884.31
2022-11-20T02:45:25.945Z,100885.25
2022-11-20T02:47:53.586Z,100886.13
2022-11-20T02:50:21.167Z,100893.19
2022-11-20T02:52:47.970Z,100897.63
2022-11-20T02:55:15.014Z,100900.28
2022-11-20T02:57:41.885Z,100901.19
2022-11-20T03:00:10.064Z,100903.84
2022-11-20T03:02:36.965Z,100900.34
2022-11-20T03:05:04.143Z,100903.91
2022-11-20T03:07:30.906Z,100903.91
2022-11-20T03:09:57.756Z,100895.09
2022-11-20T03:12:24.568Z,100888.97
2022-11-20T03:14:53.235Z,100888.09
2022-11-20T03:17:20.726Z,100889.88
2022-11-20T03:19:47.623Z,100891.66
2022-11-20T03:22:14.666Z,100888.16
2022-11-20T03:24:41.415Z,100889.94
2022-11-20T03:27:08.188Z,100887.31
2022-11-20T03:29:36.654Z,100877.63
2022-11-20T03:32:03.512Z,100879.41
2022-11-20T03:34:30.456Z,100878.50
2022-11-20T03:36:57.224Z,100872.41
2022-11-20T03:39:24.215Z,100870.63
2022-11-20T03:41:51.126Z,100867.16
2022-11-20T03:44:17.948Z,100859.22
2022-11-20T03:46:44.676Z,100864.50
2022-11-20T03:49:11.456Z,100868.91
2022-11-20T03:51:38.298Z,100864.53
2022-11-20T03:54:09.458Z,100859.25
2022-11-20T03:56:39.170Z,100848.72
2022-11-20T03:59:07.054Z,100843.47
2022-11-20T04:01:38.327Z,100840.88
2022-11-20T04:04:05.628Z,100838.25
2022-11-20T04:06:38.012Z,100835.59
2022-11-20T04:09:05.973Z,100836.50
2022-11-20T04:11:37.297Z,100830.34
2022-11-20T04:14:06.957Z,100837.38
2022-11-20T04:16:37.105Z,100837.38
2022-11-20T04:19:07.219Z,100841.72
2022-11-20T04:21:34.295Z,100837.22
2022-11-20T04:24:01.377Z,100833.59
2022-11-20T04:26:30.215Z,100838.88
2022-11-20T04:28:58.549Z,100837.13
2022-11-20T04:31:31.832Z,100840.69
2022-11-20T04:34:04.874Z,100836.34
2022-11-20T04:36:33.356Z,100839.91
2022-11-20T04:39:05.447Z,100835.59
2022-11-20T04:41:36.796Z,100835.66
2022-11-20T04:44:06.618Z,100840.94
2022-11-20T04:46:42.198Z,100834.81
2022-11-20T04:49:09.976Z,100835.69
2022-11-20T04:51:36.824Z,100833.94
2022-11-20T04:54:04.035Z,100826.91
2022-11-20T04:56:31.209Z,100826.91
2022-11-20T04:59:02.779Z,100826.91
2022-11-20T05:01:29.922Z,100825.19
2022-11-20T05:03:56.692Z,100828.69
2022-11-20T05:06:23.885Z,100835.75
2022-11-20T05:08:51.048Z,100830.53
2022-11-20T05:11:21.646Z,100823.50
2022-11-20T05:13:50.061Z,100826.13
2022-11-20T05:16:23.756Z,100819.13
2022-11-20T05:18:55.337Z,100817.38
2022-11-20T05:21:23.308Z,100816.50
2022-11-20T05:23:50.070Z,100799.78
2022-11-20T05:26:22.842Z,100800.63
2022-11-20T05:28:50.987Z,100807.63
2022-11-20T05:31:27.833Z,100803.19
2022-11-20T05:33:58.021Z,100811.09
2022-11-20T05:36:25.580Z,100811.00
2022-11-20T05:38:55.500Z,100805.72
2022-11-20T05:41:25.527Z,100796.88
2022-11-20T05:43:52.866Z,100791.59
2022-11-20T05:46:27.649Z,100791.53
2022-11-20T05:48:55.765Z,100792.38
2022-11-20T05:51:24.065Z,100798.50
2022-11-20T05:53:51.002Z,100802.81
2022-11-20T05:56:20.887Z,100805.44
2022-11-20T05:58:48.772Z,100815.94
2022-11-20T06:01:25.132Z,100810.59
2022-11-20T06:03:53.455Z,100819.31
2022-11-20T06:06:21.372Z,100822.72
2022-11-20T06:08:49.336Z,100826.13
2022-11-20T06:11:18.197Z,100827.81
2022-11-20T06:13:46.366Z,100820.75
2022-11-20T06:16:17.455Z,100833.03
2022-11-20T06:18:44.272Z,100833.00
2022-11-20T06:21:20.241Z,100822.47
2022-11-20T06:23:48.098Z,100829.41
2022-11-20T06:26:22.583Z,100830.16
2022-11-20T06:28:50.408Z,100832.72
2022-11-20T06:31:20.370Z,100834.50
2022-11-20T06:33:48.454Z,100836.31
2022-11-20T06:36:19.102Z,100824.03
2022-11-20T06:38:45.949Z,100817.06
2022-11-20T06:41:20.052Z,100822.34
2022-11-20T06:43:47.604Z,100812.63
2022-11-20T06:46:20.117Z,100818.81
2022-11-20T06:48:49.872Z,100820.56
2022-11-20T06:51:16.865Z,100817.03
2022-11-20T06:53:43.618Z,100813.53
2022-11-20T06:56:10.468Z,100813.56
2022-11-20T06:58:37.998Z,100815.38
2022-11-20T07:01:13.448Z,100811.88
2022-11-20T07:03:41.034Z,100811.91
2022-11-20T07:06:08.426Z,100804.84
2022-11-20T07:08:35.789Z,100818.03
2022-11-20T07:11:06.934Z,100813.56
2022-11-20T07:13:34.169Z,100816.09
2022-11-20T07:16:04.569Z,100801.94
2022-11-20T07:18:31.844Z,100799.25
2022-11-20T07:21:04.302Z,100799.19
2022-11-20T07:23:31.085Z,100796.50
2022-11-20T07:25:57.970Z,100804.34
2022-11-20T07:28:24.716Z,100803.44
2022-11-20T07:30:53.837Z,100806.00
2022-11-20T07:33:21.665Z,100809.50
2022-11-20T07:35:48.562Z,100807.66
2022-11-20T07:38:15.489Z,100803.13
2022-11-20T07:40:42.395Z,100804.75
2022-11-20T07:43:09.359Z,100808.09
2022-11-20T07:45:36.251Z,100806.25
2022-11-20T07:48:03.389Z,100808.75
2022-11-20T07:50:30.320Z,100806.00
2022-11-20T07:53:07.254Z,100801.44
2022-11-20T07:55:34.158Z,100800.44
2022-11-20T07:58:01.160Z,100810.03
2022-11-20T08:00:28.665Z,100812.56
2022-11-20T08:02:55.803Z,100809.78
2022-11-20T08:05:22.666Z,100809.75
2022-11-20T08:07:49.879Z,100812.25
2022-11-20T08:10:18.031Z,100809.53
2022-11-20T08:13:09.241Z,100807.69
2022-11-20T08:15:37.456Z,100805.75
2022-11-20T08:18:30.685Z,100799.44
2022-11-20T08:21:02.639Z,100796.59
2022-11-20T08:23:29.490Z,100796.38
2022-11-20T08:25:56.206Z,100787.38
2022-11-20T08:28:22.981Z,100795.19
2022-11-20T08:30:51.428Z,100795.88
2022-11-20T08:33:19.477Z,100795.72
2022-11-20T08:35:46.457Z,100796.34
2022-11-20T08:38:13.217Z,100789.09
2022-11-20T08:40:40.064Z,100795.16
2022-11-20T08:43:06.958Z,100789.81
2022-11-20T08:45:35.269Z,100793.25
2022-11-20T08:48:04.436Z,100782.47
2022-11-20T08:50:34.845Z,100786.69
2022-11-20T08:53:07.756Z,100794.38
2022-11-20T08:55:36.548Z,100799.41
2022-11-20T08:58:07.853Z,100785.13
2022-11-20T09:00:35.282Z,100792.09
2022-11-20T09:03:02.864Z,100783.91
2022-11-20T09:05:30.321Z,100783.75
2022-11-20T09:08:00.776Z,100775.69
2022-11-20T09:10:28.805Z,100777.38
2022-11-20T09:12:56.561Z,100766.69
2022-11-20T09:15:25.166Z,100766.59
2022-11-20T09:18:05.378Z,100766.50
2022-11-20T09:20:33.076Z,100777.63
2022-11-20T09:22:59.799Z,100770.25
2022-11-20T09:25:26.573Z,100769.25
2022-11-20T09:27:57.777Z,100770.94
2022-11-20T09:30:24.968Z,100772.47
2022-11-20T09:32:52.242Z,100770.50
2022-11-20T09:35:19.124Z,100761.63
2022-11-20T09:37:47.014Z,100750.81
2022-11-20T09:40:27.554Z,100751.63
2022-11-20T09:43:16.022Z,100764.84
2022-11-20T09:46:03.185Z,100745.28
2022-11-20T09:49:04.064Z,100745.03
2022-11-20T09:51:48.973Z,100748.69
2022-11-20T09:54:19.519Z,100749.41
2022-11-20T09:56:54.830Z,100752.84
2022-11-20T09:59:44.455Z,100753.66
2022-11-20T10:02:37.967Z,100749.06
2022-11-20T10:05:19.966Z,100742.81
2022-11-20T10:07:57.864Z,100740.69
2022-11-20T10:10:59.816Z,100740.56
2022-11-20T10:13:54.383Z,100731.66
2022-11-20T10:16:49.930Z,100727.94
2022-11-20T10:19:48.661Z,100719.06
2022-11-20T10:22:54.080Z,100720.69
2022-11-20T10:25:29.511Z,100712.72
2022-11-20T10:28:35.887Z,100704.56
2022-11-20T10:31:15.198Z,100690.44
2022-11-20T10:34:11.069Z,100683.28
2022-11-20T10:36:48.610Z,100674.34
2022-11-20T10:39:36.337Z,100664.66
2022-11-20T10:42:03.748Z,100657.44
2022-11-20T10:44:53.763Z,100654.50
2022-11-20T10:47:23.205Z,100655.06
2022-11-20T10:49:55.619Z,100643.34
2022-11-20T10:52:34.260Z,100633.41
2022-11-20T10:55:33.678Z,100617.22
2022-11-20T10:58:30.877Z,100616.22
2022-11-20T11:01:25.102Z,100616.69
2022-11-20T11:03:54.378Z,100617.25
2022-11-20T11:06:30.723Z,100608.06
2022-11-20T11:09:05.415Z,100606.06
2022-11-20T11:11:34.854Z,100592.56
2022-11-20T11:14:14.724Z,100595.81
2022-11-20T11:16:56.697Z,100590.13
2022-11-20T11:19:24.265Z,100582.84
2022-11-20T11:21:56.238Z,100578.22
2022-11-20T11:24:42.125Z,100583.56
2022-11-20T11:27:18.498Z,100575.47
2022-11-20T11:29:46.971Z,100586.94
2022-11-20T11:32:21.726Z,100580.69
2022-11-20T11:35:03.848Z,100575.34
2022-11-20T11:37:40.680Z,100579.88
2022-11-20T11:40:27.541Z,100578.06
2022-11-20T11:43:00.703Z,100576.41
2022-11-20T11:45:28.583Z,100576.28
2022-11-20T11:48:01.301Z,100573.66
2022-11-20T11:50:30.336Z,100569.31
2022-11-20T11:53:22.091Z,100572.09
2022-11-20T11:56:12.250Z,100572.25
2022-11-20T11:58:51.057Z,100562.59
2022-11-20T12:01:29.126Z,100561.00
2022-11-20T12:04:32.110Z,100544.25
2022-11-20T12:07:44.346Z,100538.13
2022-11-20T12:10:03.056Z,100531.00
2022-11-20T12:12:41.587Z,100517.56
2022-11-20T12:15:18.453Z,100511.34
2022-11-20T12:17:45.231Z,100504.16
2022-11-20T12:20:15.807Z,100497.81
2022-11-20T12:23:29.512Z,100492.47
2022-11-20T12:26:06.863Z,100481.72
2022-11-20T12:28:39.276Z,100480.59
2022-11-20T12:31:36.256Z,100461.91
2022-11-20T12:34:16.648Z,100459.03
2022-11-20T12:36:45.850Z,100455.56
2022-11-20T12:39:23.601Z,100459.28
2022-11-20T12:42:15.173Z,100445.16
2022-11-20T12:45:15.416Z,100443.41
2022-11-20T12:48:41.052Z,100431.63
2022-11-20T12:51:31.883Z,100431.34
2022-11-20T12:54:35.590Z,100433.84
2022-11-20T12:57:45.359Z,100435.72
2022-11-20T13:00:22.568Z,100427.56
2022-11-20T13:03:45.690Z,100413.16
2022-11-20T13:06:18.539Z,100403.13
2022-11-20T13:08:56.961Z,100404.16
2022-11-20T13:11:45.643Z,100395.84
2022-11-20T13:14:25.570Z,100397.09
2022-11-20T13:17:07.093Z,100385.22
2022-11-20T13:19:35.310Z,100386.75
2022-11-20T13:22:02.243Z,100379.47
2022-11-20T13:24:33.461Z,100373.13
2022-11-20T13:27:03.127Z,100365.78
2022-11-20T13:29:31.188Z,100348.91
2022-11-20T13:32:22.198Z,100351.94
2022-11-20T13:35:06.553Z,100347.59
2022-11-20T13:37:40.258Z,100344.13
2022-11-20T13:40:10.439Z,100345.03
2022-11-20T13:42:45.916Z,100335.19
2022-11-20T13:45:28.852Z,100324.31
2022-11-20T13:47:58.449Z,100312.78
2022-11-20T13:50:53.308Z,100311.75
2022-11-20T13:53:48.220Z,100302.91
2022-11-20T13:56:53.940Z,100302.25
2022-11-20T13:59:44.907Z,100303.84
2022-11-20T14:02:17.459Z,100294.16
2022-11-20T14:04:52.095Z,100292.38
2022-11-20T14:07:25.291Z,100298.53
2022-11-20T14:09:57.622Z,100289.56
2022-11-20T14:12:32.611Z,100287.84
2022-11-20T14:15:00.608Z,100286.88
2022-11-20T14:17:35.348Z,100286.03
2022-11-20T14:20:07.345Z,100277.06
2022-11-20T14:22:34.236Z,100267.28
2022-11-20T14:25:13.155Z,100269.91
2022-11-20T14:27:54.608Z,100269.00
2022-11-20T14:30:29.388Z,100263.41
2022-11-20T14:33:03.362Z,100258.06
2022-11-20T14:35:36.784Z,100264.13
2022-11-20T14:38:05.311Z,100256.03
2022-11-20T14:40:37.243Z,100243.50
2022-11-20T14:43:24.705Z,100246.22
2022-11-20T14:46:04.890Z,100231.22
2022-11-20T14:48:48.401Z,100232.16
2022-11-20T14:51:32.732Z,100226.91
2022-11-20T14:54:19.871Z,100224.44
2022-11-20T14:57:04.752Z,100222.72
2022-11-20T14:59:35.090Z,100218.31
2022-11-20T15:02:11.254Z,100214.72
2022-11-20T15:04:58.515Z,100208.59
2022-11-20T15:07:46.409Z,100203.28
2022-11-20T15:10:19.496Z,100192.59
2022-11-20T15:13:13.055Z,100187.25
2022-11-20T15:15:57.400Z,100190.72
2022-11-20T15:18:29.331Z,100187.91
2022-11-20T15:20:58.708Z,100174.47
2022-11-20T15:23:28.355Z,100176.13
2022-11-20T15:25:55.740Z,100167.91
2022-11-20T15:28:43.789Z,100151.75
2022-11-20T15:31:13.917Z,100139.19
2022-11-20T15:33:41.144Z,100137.28
2022-11-20T15:36:08.834Z,100123.88
2022-11-20T15:38:36.437Z,100118.41
2022-11-20T15:41:03.403Z,100114.63
2022-11-20T15:43:30.153Z,100108.44
2022-11-20T15:46:04.026Z,100100.34
2022-11-20T15:48:38.013Z,100102.91
2022-11-20T15:51:11.673Z,100094.91
2022-11-20T15:53:41.149Z,100086.06
2022-11-20T15:56:13.610Z,100085.19
2022-11-20T15:58:40.663Z,100076.22
2022-11-20T16:01:12.985Z,100063.78
2022-11-20T16:03:40.152Z,100059.22
2022-11-20T16:06:07.022Z,100046.66
2022-11-20T16:08:34.363Z,100037.84
2022-11-20T16:11:01.165Z,100042.16
2022-11-20T16:13:46.392Z,100034.22
2022-11-20T16:16:23.915Z,100030.63
2022-11-20T16:18:51.334Z,100016.34
2022-11-20T16:21:18.545Z,100021.50
2022-11-20T16:23:45.361Z,100023.94
2022-11-20T16:26:21.639Z,100024.81
2022-11-20T16:28:48.473Z,100013.09
2022-11-20T16:31:19.353Z,100011.31
2022-11-20T16:33:55.102Z,100006.75
2022-11-20T16:36:26.444Z,100003.81
2022-11-20T16:38:58.532Z,100001.06
2022-11-20T16:41:28.029Z,99993.06
2022-11-20T16:44:00.769Z,99991.94
2022-11-20T16:46:31.173Z,99986.59
2022-11-20T16:49:07.387Z,99989.19
2022-11-20T16:51:37.456Z,99977.66
2022-11-20T16:54:07.351Z,99974.97
2022-11-20T16:56:34.375Z,99977.50
2022-11-20T16:59:05.405Z,99965.78
2022-11-20T17:01:32.733Z,99957.69
2022-11-20T17:04:05.552Z,99950.44
2022-11-20T17:06:39.112Z,99948.38
2022-11-20T17:09:09.450Z,99936.75
2022-11-20T17:11:37.338Z,99930.19
2022-11-20T17:14:04.725Z,99922.88
2022-11-20T17:16:31.701Z,99913.75
2022-11-20T17:19:03.417Z,99913.56
2022-11-20T17:21:33.210Z,99907.13
2022-11-20T17:24:12.023Z,99908.28
2022-11-20T17:26:40.813Z,99899.13
2022-11-20T17:29:14.810Z,99889.41
2022-11-20T17:31:43.334Z,99885.78
2022-11-20T17:34:15.673Z,99880.25
2022-11-20T17:36:45.651Z,99878.28
2022-11-20T17:39:17.346Z,99867.50
2022-11-20T17:41:44.913Z,99884.22
2022-11-20T17:44:12.968Z,99861.78
2022-11-20T17:46:40.649Z,99867.72
2022-11-20T17:49:07.592Z,99860.47
2022-11-20T17:51:35.231Z,99861.06
2022-11-20T17:54:07.444Z,99865.28
2022-11-20T17:56:54.475Z,99866.81
2022-11-20T17:59:21.676Z,99865.31
2022-11-20T18:01:48.695Z,99862.38
2022-11-20T18:04:16.676Z,99864.41
2022-11-20T18:06:43.856Z,99863.03
2022-11-20T18:09:10.736Z,99873.41
2022-11-20T18:11:41.158Z,99865.38
2022-11-20T18:14:26.509Z,99867.97
2022-11-20T18:16:57.003Z,99869.56
2022-11-20T18:19:32.132Z,99869.19
2022-11-20T18:22:01.699Z,99869.59
2022-11-20T18:24:29.100Z,99874.19
2022-11-20T18:26:59.181Z,99879.22
2022-11-20T18:29:27.109Z,99881.03
2022-11-20T18:31:54.632Z,99878.72
2022-11-20T18:34:21.867Z,99879.09
2022-11-20T18:36:49.111Z,99883.97
2022-11-20T18:39:17.096Z,99893.41
2022-11-20T18:42:03.089Z,99893.19
2022-11-20T18:44:50.931Z,99897.22
2022-11-20T18:47:34.070Z,99898.84
2022-11-20T18:50:02.112Z,99895.94
2022-11-20T18:52:34.224Z,99905.06
2022-11-20T18:55:04.146Z,99913.50
2022-11-20T18:57:32.609Z,99915.63
2022-11-20T19:00:03.527Z,99926.53
2022-11-20T19:02:37.916Z,99924.16
2022-11-20T19:05:08.845Z,99925.19
2022-11-20T19:07:35.682Z,99940.72
2022-11-20T19:10:04.235Z,99937.47
2022-11-20T19:12:31.668Z,99937.84
2022-11-20T19:14:58.523Z,99944.25
2022-11-20T19:17:25.409Z,99934.78
2022-11-20T19:19:54.849Z,99945.91
2022-11-20T19:22:21.776Z,99951.34
2022-11-20T19:24:49.305Z,99951.44
2022-11-20T19:27:16.015Z,99951.78
2022-11-20T19:29:42.816Z,99957.53
2022-11-20T19:32:09.631Z,99956.00
2022-11-20T19:34:36.357Z,99956.56
2022-11-20T19:37:03.215Z,99963.16
2022-11-20T19:39:30.000Z,99969.47
2022-11-20T19:41:56.841Z,99967.94
2022-11-20T19:44:23.660Z,99981.31
2022-11-20T19:46:50.996Z,99981.47
2022-11-20T19:49:18.112Z,99984.44
2022-11-20T19:51:48.814Z,99986.44
2022-11-20T19:54:16.983Z,99994.66
2022-11-20T19:56:45.345Z,99999.31
2022-11-20T19:59:13.020Z,100004.84
2022-11-20T20:01:40.034Z,100009.63
2022-11-20T20:04:07.291Z,100009.03
2022-11-20T20:06:38.732Z,100020.06
2022-11-20T20:09:12.210Z,100020.41
2022-11-20T20:11:40.727Z,100022.31
2022-11-20T20:14:13.768Z,100025.25
2022-11-20T20:16:41.661Z,100028.81
2022-11-20T20:19:12.104Z,100022.69
2022-11-20T20:21:38.930Z,100026.47
2022-11-20T20:24:06.406Z,100032.78
2022-11-20T20:26:33.825Z,100033.91
2022-11-20T20:29:04.007Z,100032.16
2022-11-20T20:31:33.368Z,100034.06
2022-11-20T20:34:01.436Z,100037.00
2022-11-20T20:36:28.195Z,100042.44
2022-11-20T20:38:59.562Z,100036.31
2022-11-20T20:41:26.675Z,100044.31
2022-11-20T20:44:12.607Z,100035.44
2022-11-20T20:46:40.955Z,100044.50
2022-11-20T20:49:09.059Z,100052.69
2022-11-20T20:51:36.651Z,100058.03
2022-11-20T20:54:04.705Z,100058.13
2022-11-20T20:56:32.045Z,100052.84
2022-11-20T20:58:58.877Z,100053.03
2022-11-20T21:01:28.719Z,100061.91
2022-11-20T21:03:57.355Z,100052.16
2022-11-20T21:06:25.472Z,100062.00
2022-11-20T21:08:52.477Z,100057.63
2022-11-20T21:11:21.109Z,100058.72
2022-11-20T21:13:49.394Z,100053.22
2022-11-20T21:16:20.640Z,100062.00
2022-11-20T21:18:48.013Z,100067.34
2022-11-20T21:21:35.761Z,100059.41
2022-11-20T21:24:03.807Z,100055.25
2022-11-20T21:26:30.573Z,100065.09
2022-11-20T21:28:58.060Z,100074.94
2022-11-20T21:31:27.073Z,100068.00
2022-11-20T21:33:56.347Z,100067.84
2022-11-20T21:36:27.825Z,100076.84
2022-11-20T21:38:57.086Z,100077.50
2022-11-20T21:41:27.237Z,100071.28
2022-11-20T21:44:29.207Z,100062.34
2022-11-20T21:46:45.661Z,100072.25
2022-11-20T21:49:13.118Z,100076.63
2022-11-20T21:51:40.463Z,100078.19
2022-11-20T21:54:07.380Z,100081.81
2022-11-20T21:56:34.134Z,100089.06
2022-11-20T21:59:00.941Z,100088.28
2022-11-20T22:01:31.137Z,100082.94
2022-11-20T22:04:01.614Z,100087.34
2022-11-20T22:06:34.362Z,100081.97
2022-11-20T22:09:03.388Z,100087.53
2022-11-20T22:11:31.017Z,100085.78
2022-11-20T22:14:17.299Z,100095.69
2022-11-20T22:16:44.100Z,100093.03
2022-11-20T22:19:11.069Z,100101.66
2022-11-20T22:21:40.416Z,100099.75
2022-11-20T22:24:08.407Z,100098.88
2022-11-20T22:26:40.350Z,100108.72
2022-11-20T22:29:08.486Z,100109.66
2022-11-20T22:31:35.245Z,100108.91
2022-11-20T22:34:03.203Z,100110.75
2022-11-20T22:36:31.800Z,100121.44
2022-11-20T22:39:01.940Z,100105.25
2022-11-20T22:41:29.780Z,100099.06
2022-11-20T22:44:03.273Z,100110.75
2022-11-20T22:46:34.703Z,100122.72
2022-11-20T22:49:05.531Z,100115.75
2022-11-20T22:51:36.071Z,100116.53
2022-11-20T22:54:03.839Z,100111.25
2022-11-20T22:56:31.390Z,100114.88
2022-11-20T22:58:58.570Z,100102.47
2022-11-20T23:01:30.505Z,100113.00
2022-11-20T23:04:10.728Z,100120.22
2022-11-20T23:06:38.002Z,100131.22
2022-11-20T23:09:07.443Z,100133.13
2022-11-20T23:11:35.744Z,100140.34
2022-11-20T23:14:13.217Z,100143.03
2022-11-20T23:16:40.291Z,100145.53
2022-11-20T23:19:11.263Z,100147.25
2022-11-20T23:21:41.376Z,100146.41
2022-11-20T23:24:09.668Z,100146.41
2022-11-20T23:26:39.777Z,100153.47
2022-11-20T23:29:07.265Z,100141.06
2022-11-20T23:31:35.949Z,100150.75
2022-11-20T23:34:03.357Z,100147.09
2022-11-20T23:36:30.165Z,100140.91
2022-11-20T23:38:57.115Z,100147.09
2022-11-20T23:41:24.227Z,100146.41
2022-11-20T23:43:51.030Z,100144.84
2022-11-20T23:46:17.812Z,100150.09
2022-11-20T23:48:45.613Z,100158.97
2022-11-20T23:51:13.490Z,100161.72
2022-11-20T23:53:40.341Z,100153.78
2022-11-20T23:56:07.423Z,100162.91
2022-11-20T23:58:37.845Z,100164.88
